Time;durP1;ratioP1;P1;durP2;ratioP2;P2;SDS_P1;SDS_P2;PMS_P1;PMS_P2;Temp;Humidity;BMP_temperature;BMP_pressure;BME280_temperature;BME280_humidity;BME280_pressure;Samples;Min_cycle;Max_cycle;Signal;HPM_P1;HPM_P2
2024/04/11 00:01:14;;;;;;;6.97;1.77;;;14.00;99.90;;;;;;7284801;19;20189;-79
2024/04/11 00:03:40;;;;;;;7.90;1.60;;;13.90;99.90;;;;;;7286959;19;20186;-79
2024/04/11 00:06:06;;;;;;;9.07;1.73;;;13.80;99.90;;;;;;7304381;19;20210;-78
2024/04/11 00:08:32;;;;;;;7.37;1.83;;;13.70;99.90;;;;;;7296765;19;20187;-79
2024/04/11 00:10:57;;;;;;;12.77;2.10;;;13.80;99.90;;;;;;7283692;19;20249;-79
2024/04/11 00:13:23;;;;;;;11.87;2.30;;;13.80;99.90;;;;;;7285731;19;20188;-79
2024/04/11 00:15:53;;;;;;;10.90;2.10;;;13.80;99.90;;;;;;7285289;19;20197;-79
2024/04/11 00:18:23;;;;;;;8.93;2.03;;;13.70;99.90;;;;;;7283622;19;20189;-80
2024/04/11 00:20:48;;;;;;;11.80;2.20;;;13.60;99.90;;;;;;7285553;19;20209;-79
2024/04/11 00:23:14;;;;;;;10.50;1.73;;;13.50;99.90;;;;;;7284304;19;20181;-79
2024/04/11 00:25:41;;;;;;;12.10;1.83;;;13.50;99.90;;;;;;7285683;19;20212;-79
2024/04/11 00:28:09;;;;;;;10.37;1.53;;;13.50;99.90;;;;;;7286044;19;20275;-79
2024/04/11 00:30:36;;;;;;;10.40;1.53;;;13.50;99.90;;;;;;7305025;19;20202;-79
2024/04/11 00:33:02;;;;;;;13.00;1.90;;;13.50;99.90;;;;;;7285287;19;20198;-79
2024/04/11 00:35:27;;;;;;;9.13;1.67;;;13.50;99.90;;;;;;7284931;19;20194;-79
2024/04/11 00:37:53;;;;;;;13.37;1.80;;;13.70;99.90;;;;;;7282850;19;20189;-80
2024/04/11 00:40:20;;;;;;;7.43;1.70;;;13.80;99.90;;;;;;7284052;19;20196;-79
2024/04/11 00:42:45;;;;;;;10.70;1.70;;;13.80;99.90;;;;;;7283433;19;20185;-80
2024/04/11 00:45:12;;;;;;;10.13;1.93;;;13.80;99.90;;;;;;7284139;19;20306;-79
2024/04/11 00:47:40;;;;;;;10.93;2.17;;;13.80;99.90;;;;;;7285611;19;20192;-79
2024/04/11 00:50:07;;;;;;;10.60;1.93;;;13.80;99.90;;;;;;7302498;19;20277;-77
2024/04/11 00:52:34;;;;;;;9.53;1.30;;;13.80;99.90;;;;;;7304169;19;20288;-79
2024/04/11 00:55:02;;;;;;;10.33;1.47;;;13.90;99.90;;;;;;7278877;19;20213;-79
2024/04/11 00:57:27;;;;;;;9.77;1.30;;;13.90;99.90;;;;;;7279878;19;20183;-79
2024/04/11 00:59:53;;;;;;;13.00;1.80;;;14.10;99.90;;;;;;7283173;19;20195;-80
2024/04/11 01:02:19;;;;;;;8.07;1.50;;;14.10;99.90;;;;;;7280847;19;20195;-80
2024/04/11 01:04:45;;;;;;;10.10;1.53;;;14.10;99.90;;;;;;7276702;19;20192;-80
2024/04/11 01:07:12;;;;;;;8.67;1.50;;;14.10;99.90;;;;;;7280044;19;20192;-80
2024/04/11 01:09:45;;;;;;;10.27;1.80;;;14.00;99.90;;;;;;7283122;19;20668;-79
2024/04/11 01:12:12;;;;;;;8.77;1.53;;;14.00;99.90;;;;;;7282734;19;20219;-80
2024/04/11 01:14:41;;;;;;;9.37;1.77;;;14.00;99.90;;;;;;7279963;19;21153;-79
2024/04/11 01:17:07;;;;;;;11.30;1.80;;;14.10;99.90;;;;;;7289702;19;20654;-80
2024/04/11 01:19:33;;;;;;;9.10;1.40;;;14.10;99.90;;;;;;7304556;19;20200;-80
2024/04/11 01:22:00;;;;;;;11.30;1.40;;;14.00;99.90;;;;;;7281915;19;20195;-80
2024/04/11 01:24:27;;;;;;;9.87;1.80;;;13.90;99.90;;;;;;7280416;19;21239;-80
2024/04/11 01:26:54;;;;;;;9.27;1.43;;;14.00;99.90;;;;;;7283047;19;20199;-80
2024/04/11 01:29:20;;;;;;;8.80;1.30;;;14.00;99.90;;;;;;7284044;19;20189;-79
2024/04/11 01:31:46;;;;;;;7.47;1.63;;;13.90;99.90;;;;;;7284886;19;20201;-80
2024/04/11 01:34:12;;;;;;;6.67;1.50;;;13.80;99.90;;;;;;7281825;19;20188;-80
2024/04/11 01:36:38;;;;;;;8.90;1.37;;;13.90;99.90;;;;;;7281775;19;20218;-79
2024/04/11 01:39:04;;;;;;;9.87;1.53;;;14.00;99.90;;;;;;7305195;19;20186;-80
2024/04/11 01:41:31;;;;;;;6.03;1.40;;;14.00;99.90;;;;;;7282259;19;20312;-80
2024/04/11 01:43:56;;;;;;;5.00;1.20;;;14.10;99.90;;;;;;7281129;19;20199;-80
2024/04/11 01:46:22;;;;;;;11.57;1.50;;;14.10;99.90;;;;;;7283150;19;20531;-79
2024/04/11 01:48:48;;;;;;;7.33;1.60;;;14.10;99.90;;;;;;7282389;19;20193;-80
2024/04/11 01:51:14;;;;;;;10.57;1.57;;;14.00;99.90;;;;;;7282701;19;20225;-80
2024/04/11 01:53:40;;;;;;;6.07;1.47;;;14.00;99.90;;;;;;7282796;19;20193;-79
2024/04/11 01:56:06;;;;;;;10.83;1.33;;;14.10;99.90;;;;;;7300914;19;20193;-78
2024/04/11 01:58:32;;;;;;;9.87;1.37;;;14.20;99.90;;;;;;7294657;19;20215;-80
2024/04/11 02:01:09;;;;;;;8.93;1.50;;;14.20;99.90;;;;;;7280364;19;20302;-80
2024/04/11 02:03:41;;;;;;;7.97;1.57;;;14.10;99.90;;;;;;7279195;19;20636;-81
2024/04/11 02:06:08;;;;;;;10.80;1.93;;;14.10;99.90;;;;;;7269611;19;20197;-80
2024/04/11 02:08:41;;;;;;;7.83;1.47;;;14.00;99.90;;;;;;7303520;19;20188;-80
2024/04/11 02:11:07;;;;;;;7.03;1.33;;;14.10;99.90;;;;;;7271283;19;20201;-79
2024/04/11 02:13:33;;;;;;;9.03;1.40;;;14.00;99.90;;;;;;7302125;19;20181;-80
2024/04/11 02:15:59;;;;;;;8.10;1.30;;;14.00;99.90;;;;;;7284360;19;20186;-79
2024/04/11 02:18:27;;;;;;;9.27;1.50;;;14.10;99.90;;;;;;7287637;19;20290;-80
2024/04/11 02:20:53;;;;;;;9.53;1.30;;;14.10;99.90;;;;;;7288770;19;20676;-80
2024/04/11 02:23:19;;;;;;;6.57;1.20;;;14.10;99.90;;;;;;7289561;19;20189;-80
2024/04/11 02:25:45;;;;;;;8.17;1.43;;;14.10;99.90;;;;;;7289328;19;20193;-80
2024/04/11 02:28:11;;;;;;;7.63;1.40;;;14.10;99.90;;;;;;7287047;19;20543;-80
2024/04/11 02:30:36;;;;;;;7.07;1.43;;;14.10;99.90;;;;;;7301943;19;21050;-80
2024/04/11 02:33:02;;;;;;;7.50;1.50;;;14.10;99.90;;;;;;7303715;19;20181;-80
2024/04/11 02:35:28;;;;;;;9.03;1.27;;;14.10;99.90;;;;;;7289341;19;20633;-80
2024/04/11 02:37:54;;;;;;;10.33;1.57;;;14.10;99.90;;;;;;7287437;19;20198;-80
2024/04/11 02:40:20;;;;;;;9.00;1.67;;;14.00;99.90;;;;;;7287950;19;20193;-80
2024/04/11 02:42:47;;;;;;;7.90;1.20;;;14.00;99.90;;;;;;7286459;19;20190;-79
2024/04/11 02:45:18;;;;;;;10.00;1.80;;;14.00;99.90;;;;;;7288205;19;20663;-80
2024/04/11 02:47:44;;;;;;;11.53;1.63;;;14.10;99.90;;;;;;7288254;19;21081;-80
2024/04/11 02:50:15;;;;;;;10.27;1.37;;;14.10;99.90;;;;;;7286484;19;20191;-81
2024/04/11 02:52:43;;;;;;;7.50;1.30;;;14.10;99.90;;;;;;7288948;19;20194;-80
2024/04/11 02:55:11;;;;;;;9.43;1.40;;;14.10;99.90;;;;;;7288547;19;20208;-80
2024/04/11 02:57:37;;;;;;;10.77;1.57;;;14.10;99.90;;;;;;7303063;19;20733;-79
2024/04/11 03:00:04;;;;;;;7.53;1.40;;;14.10;99.90;;;;;;7304038;19;20665;-81
2024/04/11 03:02:34;;;;;;;7.40;1.50;;;14.10;99.90;;;;;;7288455;19;20194;-81
2024/04/11 03:05:00;;;;;;;9.50;1.63;;;14.10;99.90;;;;;;7287955;19;20193;-80
2024/04/11 03:07:27;;;;;;;6.90;1.40;;;14.10;99.90;;;;;;7286795;19;20205;-80
2024/04/11 03:09:56;;;;;;;7.37;1.23;;;14.10;99.90;;;;;;7287482;19;20193;-83
2024/04/11 03:12:22;;;;;;;9.37;1.37;;;14.10;99.90;;;;;;7287981;19;20209;-80
2024/04/11 03:14:48;;;;;;;8.63;1.50;;;14.10;99.90;;;;;;7287387;19;20189;-81
2024/04/11 03:17:13;;;;;;;9.70;1.53;;;14.00;99.90;;;;;;7284665;19;20185;-81
2024/04/11 03:19:40;;;;;;;7.70;1.47;;;13.90;99.90;;;;;;7287303;19;20200;-81
2024/04/11 03:22:06;;;;;;;9.50;1.50;;;13.90;99.90;;;;;;7308927;19;20189;-81
2024/04/11 03:24:32;;;;;;;6.77;1.30;;;14.00;99.90;;;;;;7285856;19;20193;-81
2024/04/11 03:27:00;;;;;;;6.97;1.30;;;14.10;99.90;;;;;;7283552;19;20194;-82
2024/04/11 03:29:27;;;;;;;8.70;1.60;;;14.20;99.90;;;;;;7285706;19;20209;-81
2024/04/11 03:31:54;;;;;;;10.97;1.57;;;14.20;99.90;;;;;;7288397;19;20190;-81
2024/04/11 03:34:21;;;;;;;8.00;1.20;;;14.20;99.90;;;;;;7284580;19;20198;-81
2024/04/11 03:36:49;;;;;;;7.87;1.33;;;14.00;99.90;;;;;;7281679;19;20676;-81
2024/04/11 03:39:15;;;;;;;10.43;1.50;;;14.00;99.90;;;;;;7286947;19;20189;-81
2024/04/11 03:41:41;;;;;;;6.03;1.20;;;14.00;99.90;;;;;;7285775;19;20188;-81
2024/04/11 03:44:09;;;;;;;10.40;1.67;;;14.10;99.90;;;;;;7295442;19;20189;-80
2024/04/11 03:46:36;;;;;;;11.60;1.60;;;14.10;99.90;;;;;;7309607;19;20185;-80
2024/04/11 03:49:04;;;;;;;7.50;1.43;;;14.10;99.90;;;;;;7287119;19;20228;-80
2024/04/11 03:51:33;;;;;;;10.00;1.50;;;14.10;99.90;;;;;;7284013;19;20874;-81
2024/04/11 03:54:02;;;;;;;9.50;1.30;;;14.10;99.90;;;;;;7284305;19;20248;-81
2024/04/11 03:56:28;;;;;;;10.57;1.90;;;14.10;99.90;;;;;;7285496;19;20190;-81
2024/04/11 03:58:56;;;;;;;11.47;1.60;;;14.20;99.90;;;;;;7285438;19;20638;-81
2024/04/11 04:01:22;;;;;;;7.97;1.20;;;14.20;99.90;;;;;;7286417;19;20198;-81
2024/04/11 04:03:54;;;;;;;11.77;1.83;;;14.10;99.90;;;;;;7283521;19;20210;-81
2024/04/11 04:06:21;;;;;;;10.70;1.57;;;14.00;99.90;;;;;;7287348;19;20185;-81
2024/04/11 04:08:48;;;;;;;9.50;1.30;;;14.10;99.90;;;;;;7286700;19;20559;-81
2024/04/11 04:11:18;;;;;;;9.30;1.70;;;14.10;99.90;;;;;;7285276;19;20190;-81
2024/04/11 04:13:44;;;;;;;7.50;1.30;;;14.20;99.90;;;;;;7285965;19;20194;-81
2024/04/11 04:16:12;;;;;;;12.50;1.67;;;14.20;99.90;;;;;;7285017;19;20189;-81
2024/04/11 04:18:38;;;;;;;8.97;1.70;;;14.20;99.90;;;;;;7291399;19;20199;-80
2024/04/11 04:21:04;;;;;;;10.17;1.50;;;14.30;99.90;;;;;;7307919;19;20190;-81
2024/04/11 04:23:31;;;;;;;11.37;1.60;;;14.30;99.90;;;;;;7283674;19;20210;-81
2024/04/11 04:26:06;;;;;;;6.87;1.37;;;14.30;99.90;;;;;;7286377;19;20208;-81
2024/04/11 04:28:34;;;;;;;8.53;1.53;;;14.30;99.90;;;;;;7285198;19;20235;-81
2024/04/11 04:31:14;;;;;;;10.00;1.67;;;14.30;99.90;;;;;;7282578;19;20316;-81
2024/04/11 04:33:47;;;;;;;10.07;1.87;;;14.30;99.90;;;;;;7262988;19;20185;-81
2024/04/11 04:36:20;;;;;;;10.97;1.93;;;14.20;99.90;;;;;;7283297;19;20218;-81
2024/04/11 04:38:49;;;;;;;12.37;1.80;;;14.20;99.90;;;;;;7283884;19;20183;-81
2024/04/11 04:41:19;;;;;;;6.70;1.57;;;14.20;99.90;;;;;;7282786;19;20692;-81
2024/04/11 04:43:53;;;;;;;5.73;1.40;;;14.30;99.90;;;;;;7285060;19;20192;-80
2024/04/11 04:46:24;;;;;;;8.23;1.53;;;14.30;99.90;;;;;;7284563;19;20201;-80
2024/04/11 04:48:52;;;;;;;8.03;1.70;;;14.40;99.90;;;;;;7284474;19;20210;-80
2024/04/11 04:51:19;;;;;;;10.80;1.60;;;14.30;99.90;;;;;;7283300;19;20190;-80
2024/04/11 04:53:46;;;;;;;8.83;1.20;;;14.30;99.90;;;;;;7284500;19;20193;-80
2024/04/11 04:56:13;;;;;;;5.27;1.23;;;14.10;99.90;;;;;;7284539;19;20280;-80
2024/04/11 04:58:41;;;;;;;7.40;1.40;;;13.90;99.90;;;;;;7283218;19;20209;-80
2024/04/11 05:01:08;;;;;;;11.17;1.67;;;13.90;99.90;;;;;;7296479;19;20308;-79
2024/04/11 05:03:34;;;;;;;7.87;1.50;;;14.10;99.90;;;;;;7306191;19;20210;-81
2024/04/11 05:06:03;;;;;;;7.77;1.63;;;14.10;99.90;;;;;;7283612;19;20193;-80
2024/04/11 05:08:32;;;;;;;7.80;1.50;;;14.20;99.90;;;;;;7283254;19;20191;-80
2024/04/11 05:10:58;;;;;;;10.70;1.57;;;14.10;99.90;;;;;;7283041;19;20731;-80
2024/04/11 05:13:29;;;;;;;10.67;1.70;;;14.20;99.90;;;;;;7283361;19;20182;-80
2024/04/11 05:16:01;;;;;;;11.60;1.90;;;14.20;99.90;;;;;;7282778;19;20190;-80
2024/04/11 05:18:27;;;;;;;7.63;1.60;;;14.10;99.90;;;;;;7282736;19;20266;-80
2024/04/11 05:20:53;;;;;;;9.53;1.60;;;14.10;99.90;;;;;;7284092;19;20190;-80
2024/04/11 05:23:19;;;;;;;9.17;1.60;;;14.10;99.90;;;;;;7282775;19;20194;-79
2024/04/11 05:25:46;;;;;;;7.40;1.43;;;14.10;99.90;;;;;;7281541;19;20197;-80
2024/04/11 05:28:12;;;;;;;8.97;1.53;;;14.10;99.90;;;;;;7281846;19;20646;-79
2024/04/11 05:30:40;;;;;;;11.23;1.63;;;14.10;99.90;;;;;;7286474;19;20212;-78
2024/04/11 05:33:09;;;;;;;9.20;1.57;;;14.00;99.90;;;;;;7304605;19;20190;-79
2024/04/11 05:35:36;;;;;;;8.00;1.50;;;14.00;99.90;;;;;;7281967;19;20192;-79
2024/04/11 05:38:02;;;;;;;9.60;1.97;;;14.10;99.90;;;;;;7282195;19;20218;-79
2024/04/11 05:40:28;;;;;;;11.10;1.77;;;14.10;99.90;;;;;;7284153;19;20177;-79
2024/04/11 05:42:54;;;;;;;11.43;1.77;;;14.10;99.90;;;;;;7283165;19;20189;-79
2024/04/11 05:45:24;;;;;;;8.93;1.73;;;14.30;99.90;;;;;;7280418;19;20215;-80
2024/04/11 05:47:51;;;;;;;8.80;1.50;;;14.20;99.90;;;;;;7282706;19;20189;-80
2024/04/11 05:50:19;;;;;;;9.37;1.50;;;14.30;99.90;;;;;;7282037;19;20192;-80
2024/04/11 05:52:48;;;;;;;6.30;1.33;;;14.00;99.90;;;;;;7283438;19;20202;-79
2024/04/11 05:55:16;;;;;;;6.33;1.23;;;13.80;99.90;;;;;;7282620;19;20186;-80
2024/04/11 05:57:43;;;;;;;5.87;1.23;;;13.80;99.90;;;;;;7281218;19;20571;-80
2024/04/11 06:00:11;;;;;;;8.00;1.70;;;13.70;99.90;;;;;;7282891;19;20183;-80
2024/04/11 06:02:40;;;;;;;11.23;1.67;;;13.70;99.90;;;;;;7294832;19;20193;-79
2024/04/11 06:05:06;;;;;;;8.57;1.60;;;13.70;99.90;;;;;;7302681;19;20193;-80
2024/04/11 06:07:32;;;;;;;8.63;1.80;;;13.80;99.90;;;;;;7281589;19;20195;-79
2024/04/11 06:10:00;;;;;;;13.60;1.83;;;14.00;99.90;;;;;;7282049;19;20186;-79
2024/04/11 06:12:28;;;;;;;8.50;1.97;;;14.10;99.90;;;;;;7280889;19;20189;-80
2024/04/11 06:14:54;;;;;;;11.57;2.17;;;14.30;99.90;;;;;;7278929;19;20229;-80
2024/04/11 06:17:21;;;;;;;8.87;1.70;;;14.40;99.90;;;;;;7281989;19;20654;-80
2024/04/11 06:19:47;;;;;;;9.83;1.60;;;14.50;99.90;;;;;;7280377;19;20195;-80
2024/04/11 06:22:16;;;;;;;7.77;1.77;;;14.70;99.90;;;;;;7278267;19;20201;-80
2024/04/11 06:24:45;;;;;;;10.73;1.80;;;14.90;99.90;;;;;;7278420;19;20513;-80
2024/04/11 06:27:12;;;;;;;8.53;1.87;;;15.00;99.90;;;;;;7280831;19;20194;-80
2024/04/11 06:29:39;;;;;;;8.47;1.90;;;15.10;99.90;;;;;;7285009;19;20189;-80
2024/04/11 06:32:06;;;;;;;8.30;1.67;;;15.20;99.90;;;;;;7299636;19;20201;-80
2024/04/11 06:34:35;;;;;;;7.20;1.77;;;15.30;99.90;;;;;;7278843;19;20193;-81
2024/04/11 06:37:02;;;;;;;10.23;2.00;;;15.40;99.90;;;;;;7281492;19;20699;-81
2024/04/11 06:39:29;;;;;;;11.23;2.00;;;15.20;99.90;;;;;;7281232;19;20962;-80
2024/04/11 06:41:55;;;;;;;13.40;2.17;;;15.20;99.90;;;;;;7279209;19;20195;-80
2024/04/11 06:44:21;;;;;;;10.60;1.80;;;15.20;99.90;;;;;;7280979;19;20199;-81
2024/04/11 06:46:49;;;;;;;12.00;1.93;;;15.10;99.90;;;;;;7282009;19;20849;-81
2024/04/11 06:49:16;;;;;;;6.77;1.70;;;15.10;99.90;;;;;;7281799;19;20690;-80
2024/04/11 06:51:42;;;;;;;13.20;1.80;;;15.20;99.90;;;;;;7280870;19;20234;-80
2024/04/11 06:54:10;;;;;;;9.97;2.10;;;15.30;99.90;;;;;;7288445;19;20270;-80
2024/04/11 06:56:36;;;;;;;9.77;1.87;;;15.30;99.90;;;;;;7302375;19;20323;-80
2024/04/11 06:59:10;;;;;;;10.23;1.87;;;15.40;99.90;;;;;;7278954;19;20670;-80
2024/04/11 07:01:36;;;;;;;11.13;1.93;;;15.50;99.90;;;;;;7280951;19;20309;-81
2024/04/11 07:04:05;;;;;;;10.87;1.93;;;15.40;99.90;;;;;;7287380;19;20191;-81
2024/04/11 07:06:39;;;;;;;10.33;1.70;;;15.30;99.90;;;;;;7287661;19;20199;-81
2024/04/11 07:09:04;;;;;;;13.33;1.90;;;15.30;99.90;;;;;;7285594;19;20220;-80
2024/04/11 07:11:39;;;;;;;10.47;1.80;;;15.40;99.90;;;;;;7286277;19;20189;-80
2024/04/11 07:14:15;;;;;;;11.90;2.50;;;15.40;99.90;;;;;;7288473;19;20211;-81
2024/04/11 07:16:44;;;;;;;9.87;1.67;;;15.40;99.90;;;;;;7266101;19;20853;-80
2024/04/11 07:19:11;;;;;;;10.23;1.70;;;15.40;99.90;;;;;;7285500;19;20259;-79
2024/04/11 07:21:38;;;;;;;10.93;1.90;;;15.30;99.90;;;;;;7299451;19;20188;-79
2024/04/11 07:24:06;;;;;;;11.40;2.20;;;15.10;99.90;;;;;;7307626;19;20192;-80
2024/04/11 07:26:33;;;;;;;8.67;1.90;;;15.10;99.90;;;;;;7284088;19;20222;-80
2024/04/11 07:29:06;;;;;;;6.20;1.40;;;14.90;99.90;;;;;;7284737;19;20189;-84
2024/04/11 07:31:40;;;;;;;7.47;1.83;;;15.00;99.90;;;;;;7286137;19;20937;-84
2024/04/11 07:34:06;;;;;;;10.00;1.97;;;15.10;99.90;;;;;;7286743;19;20195;-84
2024/04/11 07:36:41;;;;;;;13.30;2.63;;;15.10;99.90;;;;;;7283295;19;20308;-84
2024/04/11 07:39:08;;;;;;;9.27;1.90;;;15.20;99.90;;;;;;7280936;19;20214;-83
2024/04/11 07:41:46;;;;;;;10.57;2.10;;;15.30;99.90;;;;;;7309958;19;20194;-84
2024/04/11 07:44:22;;;;;;;12.17;1.90;;;15.40;99.90;;;;;;7182602;19;2004547;-84
2024/04/11 07:46:48;;;;;;;9.93;1.97;;;15.30;99.90;;;;;;7285621;19;20195;-85
2024/04/11 07:49:15;;;;;;;10.13;1.90;;;15.50;99.90;;;;;;7285349;19;20208;-84
2024/04/11 07:51:42;;;;;;;9.80;1.80;;;15.70;99.90;;;;;;7285271;19;20199;-84
2024/04/11 07:54:15;;;;;;;11.93;2.47;;;15.70;99.90;;;;;;7295088;19;20188;-83
2024/04/11 07:56:41;;;;;;;9.90;2.17;;;15.60;99.90;;;;;;7285638;19;20187;-83
2024/04/11 07:59:11;;;;;;;6.90;1.90;;;15.70;99.90;;;;;;7304085;19;20267;-81
2024/04/11 08:01:37;;;;;;;9.27;2.07;;;15.70;99.90;;;;;;7304896;19;20177;-81
2024/04/11 08:04:05;;;;;;;9.47;2.27;;;15.70;99.90;;;;;;7298911;19;20200;-84
2024/04/11 08:06:32;;;;;;;11.67;2.20;;;15.60;99.90;;;;;;7284643;19;20265;-84
2024/04/11 08:08:59;;;;;;;8.83;1.87;;;15.40;99.90;;;;;;7287089;19;21011;-84
2024/04/11 08:11:30;;;;;;;10.40;2.10;;;15.30;99.90;;;;;;7286357;19;20185;-83
2024/04/11 08:13:59;;;;;;;8.13;1.90;;;15.20;99.90;;;;;;7283041;19;20187;-84
2024/04/11 08:16:26;;;;;;;13.17;2.50;;;15.10;99.90;;;;;;7286379;19;20208;-84
2024/04/11 08:18:52;;;;;;;10.40;2.20;;;15.20;99.90;;;;;;7285983;19;20198;-84
2024/04/11 08:21:18;;;;;;;7.90;2.03;;;15.30;99.90;;;;;;7284225;19;20183;-84
2024/04/11 08:23:45;;;;;;;10.67;2.30;;;15.20;99.90;;;;;;7283554;19;20193;-84
2024/04/11 08:26:15;;;;;;;12.73;2.57;;;15.30;99.90;;;;;;7285575;19;20671;-84
2024/04/11 08:28:43;;;;;;;13.23;2.60;;;15.30;99.90;;;;;;7286153;19;20183;-84
2024/04/11 08:31:11;;;;;;;16.23;3.17;;;15.20;99.90;;;;;;7285511;19;20207;-84
2024/04/11 08:33:37;;;;;;;12.87;2.60;;;15.20;99.90;;;;;;7306651;19;20197;-81
2024/04/11 08:36:09;;;;;;;11.27;2.10;;;15.30;99.90;;;;;;7284740;19;20192;-85
2024/04/11 08:38:40;;;;;;;10.50;2.40;;;15.20;99.90;;;;;;7287077;19;20535;-84
2024/04/11 08:41:11;;;;;;;10.50;2.30;;;15.20;99.90;;;;;;7286165;19;20228;-84
2024/04/11 08:43:39;;;;;;;14.77;2.23;;;15.20;99.90;;;;;;7279235;19;20209;-82
2024/04/11 08:46:10;;;;;;;9.67;2.50;;;15.10;99.90;;;;;;7307507;19;20199;-82
2024/04/11 08:48:38;;;;;;;11.07;2.33;;;15.20;99.90;;;;;;7286630;19;20253;-82
2024/04/11 08:51:12;;;;;;;10.07;2.43;;;15.20;99.90;;;;;;7283462;19;20191;-82
2024/04/11 08:53:41;;;;;;;9.03;2.60;;;15.20;99.90;;;;;;7275908;19;20296;-81
2024/04/11 08:56:11;;;;;;;9.73;2.40;;;15.10;99.90;;;;;;7302749;19;20221;-80
2024/04/11 08:58:39;;;;;;;13.17;2.53;;;15.00;99.90;;;;;;7306224;19;20214;-80
2024/04/11 09:01:08;;;;;;;12.60;2.57;;;15.00;99.90;;;;;;7284802;19;20193;-82
2024/04/11 09:03:35;;;;;;;10.93;2.87;;;15.00;99.90;;;;;;7283405;19;20196;-83
2024/04/11 09:06:02;;;;;;;13.70;2.70;;;15.10;99.90;;;;;;7285250;19;20203;-82
2024/04/11 09:08:28;;;;;;;13.57;2.60;;;14.90;99.90;;;;;;7283553;19;20725;-82
2024/04/11 09:10:56;;;;;;;9.67;2.73;;;15.00;99.90;;;;;;7282971;19;20197;-82
2024/04/11 09:13:25;;;;;;;12.07;2.70;;;15.10;99.90;;;;;;7284082;19;20227;-82
2024/04/11 09:16:00;;;;;;;11.20;2.27;;;15.10;99.90;;;;;;7286855;19;20651;-81
2024/04/11 09:18:30;;;;;;;15.90;2.70;;;15.10;99.90;;;;;;7283826;19;20391;-80
2024/04/11 09:21:04;;;;;;;12.60;2.93;;;15.00;99.90;;;;;;7288540;19;20226;-86
2024/04/11 09:23:34;;;;;;;11.33;2.63;;;15.10;99.90;;;;;;7291837;19;20210;-86
2024/04/11 09:26:01;;;;;;;13.13;2.73;;;15.20;99.90;;;;;;7290887;19;20202;-84
2024/04/11 09:28:28;;;;;;;13.33;2.70;;;15.40;99.90;;;;;;7289641;19;20207;-85
2024/04/11 09:30:55;;;;;;;12.57;3.07;;;15.30;99.90;;;;;;7290117;19;20675;-86
2024/04/11 09:33:24;;;;;;;9.07;2.47;;;15.30;99.90;;;;;;7288875;19;20203;-85
2024/04/11 09:35:53;;;;;;;11.87;2.60;;;15.50;99.90;;;;;;7281644;19;20811;-86
2024/04/11 09:38:21;;;;;;;12.63;2.43;;;15.80;99.90;;;;;;7283750;19;20192;-85
2024/04/11 09:40:53;;;;;;;10.23;2.50;;;16.00;99.90;;;;;;7283953;19;20188;-85
2024/04/11 09:43:27;;;;;;;11.57;2.50;;;16.20;99.90;;;;;;7283587;19;20181;-84
2024/04/11 09:46:04;;;;;;;9.10;2.27;;;16.40;99.90;;;;;;7284597;19;20643;-84
2024/04/11 09:48:31;;;;;;;8.40;2.33;;;16.30;99.90;;;;;;7283749;19;20210;-84
2024/04/11 09:50:59;;;;;;;7.83;2.50;;;16.60;99.90;;;;;;7283909;19;20776;-84
2024/04/11 09:53:28;;;;;;;9.40;2.60;;;17.10;99.90;;;;;;7284317;19;20652;-83
2024/04/11 09:56:06;;;;;;;13.33;2.90;;;17.40;99.90;;;;;;7283287;19;20937;-86
2024/04/11 09:58:39;;;;;;;10.77;2.07;;;17.60;99.90;;;;;;7283042;19;20187;-85
2024/04/11 10:01:31;;;;;;;12.67;2.50;;;17.70;99.90;;;;;;7282191;19;20279;-85
2024/04/11 10:04:04;;;;;;;13.13;2.80;;;17.70;99.90;;;;;;7180665;19;2004812;-85
2024/04/11 10:06:33;;;;;;;7.57;2.10;;;17.80;99.90;;;;;;7281096;19;20189;-85
2024/04/11 10:09:29;;;;;;;10.03;2.33;;;17.60;99.90;;;;;;7283033;19;20189;-86
2024/04/11 10:12:03;;;;;;;12.27;2.50;;;17.60;99.90;;;;;;7181563;19;2004394;-86
2024/04/11 10:14:32;;;;;;;7.20;2.13;;;17.60;99.90;;;;;;7281280;19;20578;-86
2024/04/11 10:17:05;;;;;;;8.87;1.90;;;17.60;99.90;;;;;;7281994;19;20620;-86
2024/04/11 10:19:32;;;;;;;11.47;2.50;;;17.90;99.90;;;;;;7284318;19;20179;-85
2024/04/11 10:22:06;;;;;;;10.57;2.10;;;18.20;99.90;;;;;;7283901;19;21004;-85
2024/04/11 10:24:34;;;;;;;9.23;2.13;;;18.40;99.90;;;;;;7282240;19;20188;-86
2024/04/11 10:27:18;;;;;;;8.57;2.30;;;18.50;99.90;;;;;;7282199;19;20632;-85
2024/04/11 10:29:49;;;;;;;8.27;2.10;;;18.00;99.90;;;;;;7178854;19;2004828;-84
2024/04/11 10:32:22;;;;;;;7.93;2.47;;;18.30;99.90;;;;;;7283054;19;20855;-85
2024/04/11 10:34:56;;;;;;;8.77;2.37;;;18.50;99.90;;;;;;7280394;19;20189;-86
2024/04/11 10:37:25;;;;;;;9.33;2.10;;;18.50;99.90;;;;;;7287467;19;20193;-86
2024/04/11 10:39:54;;;;;;;10.67;2.80;;;18.20;99.90;;;;;;7289937;19;20185;-85
2024/04/11 10:45:17;;;;;;;8.83;2.50;;;18.90;99.90;;;;;;7290236;19;20183;-88
2024/04/11 10:47:44;;;;;;;5.47;1.77;;;21.60;99.90;;;;;;7186218;19;2004559;-88
2024/04/11 10:50:13;;;;;;;9.10;2.07;;;22.20;99.90;;;;;;7288124;19;20191;-86
2024/04/11 10:52:39;;;;;;;12.90;2.10;;;22.20;99.90;;;;;;7290511;19;20184;-84
2024/04/11 10:55:22;;;;;;;8.97;2.10;;;21.90;99.90;;;;;;7309301;19;20657;-84
2024/04/11 10:58:08;;;;;;;10.57;2.30;;;21.20;99.90;;;;;;7186357;19;2005991;-82
2024/04/11 11:06:15;;;;;;;9.00;2.60;;;21.00;99.90;;;;;;7267460;19;20206;-83
2024/04/11 11:08:44;;;;;;;11.43;2.43;;;21.00;99.90;;;;;;7285252;19;20191;-83
2024/04/11 11:11:14;;;;;;;9.23;2.70;;;20.60;99.90;;;;;;7285862;19;20219;-83
2024/04/11 11:13:44;;;;;;;11.93;2.50;;;20.20;99.90;;;;;;7287395;19;20194;-86
2024/04/11 11:16:20;;;;;;;6.93;2.40;;;20.00;99.90;;;;;;7285247;19;20565;-83
2024/04/11 11:18:47;;;;;;;10.80;2.80;;;20.20;99.90;;;;;;7288670;19;20185;-83
2024/04/11 11:21:16;;;;;;;10.27;2.17;;;20.30;99.90;;;;;;7285853;19;20212;-83
2024/04/11 11:23:45;;;;;;;10.47;2.57;;;20.20;99.90;;;;;;7286548;19;20210;-82
2024/04/11 11:26:20;;;;;;;14.10;3.27;;;19.90;99.90;;;;;;7286989;19;20191;-82
2024/04/11 11:28:46;;;;;;;11.60;2.53;;;19.50;99.90;;;;;;7284724;19;20185;-83
2024/04/11 11:31:20;;;;;;;11.27;2.70;;;19.40;99.90;;;;;;7284728;19;20196;-83
2024/04/11 11:33:49;;;;;;;8.77;2.63;;;19.50;99.90;;;;;;7287540;19;20192;-83
2024/04/11 11:36:18;;;;;;;9.47;2.77;;;19.60;99.90;;;;;;7287689;19;20548;-83
2024/04/11 11:38:54;;;;;;;10.00;2.83;;;19.70;99.90;;;;;;7285755;19;20194;-83
2024/04/11 11:41:20;;;;;;;9.30;2.90;;;19.90;99.90;;;;;;7285001;19;20199;-83
2024/04/11 11:43:46;;;;;;;9.97;3.00;;;20.10;99.90;;;;;;7286461;19;20201;-83
2024/04/11 11:46:26;;;;;;;11.80;2.80;;;20.20;99.90;;;;;;7286471;19;20195;-83
2024/04/11 11:48:56;;;;;;;11.53;2.97;;;20.20;99.90;;;;;;7283103;19;20253;-84
2024/04/11 11:51:28;;;;;;;10.27;3.00;;;20.10;99.90;;;;;;7285732;19;20211;-83
2024/04/11 11:54:00;;;;;;;13.27;2.93;;;20.00;99.90;;;;;;7286128;19;20214;-84
2024/04/11 11:56:32;;;;;;;7.50;2.77;;;19.90;99.90;;;;;;7286115;19;20251;-82
2024/04/11 11:59:02;;;;;;;12.03;3.07;;;19.80;99.90;;;;;;7283702;19;20201;-86
2024/04/11 12:01:41;;;;;;;9.17;3.03;;;19.80;99.90;;;;;;7286032;19;20182;-81
2024/04/11 12:04:08;;;;;;;12.27;3.20;;;19.80;99.90;;;;;;7286479;19;20188;-80
2024/04/11 12:06:34;;;;;;;13.40;3.17;;;19.90;99.90;;;;;;7286253;19;20203;-81
2024/04/11 12:09:10;;;;;;;9.77;2.97;;;20.10;99.90;;;;;;7285179;19;20195;-81
2024/04/11 12:11:53;;;;;;;11.93;2.90;;;20.30;99.90;;;;;;7286354;19;20219;-81
2024/04/11 12:14:28;;;;;;;14.97;3.20;;;20.40;99.90;;;;;;7181312;19;2006175;-81
2024/04/11 12:16:57;;;;;;;9.50;2.80;;;20.80;99.90;;;;;;7282120;19;20676;-82
2024/04/11 12:19:28;;;;;;;12.10;3.53;;;20.70;99.90;;;;;;7286345;19;20199;-82
2024/04/11 12:21:55;;;;;;;9.57;3.40;;;20.70;99.90;;;;;;7287404;19;20221;-81
2024/04/11 12:24:24;;;;;;;10.93;3.50;;;20.70;99.90;;;;;;7285635;19;20206;-80
2024/04/11 12:26:52;;;;;;;11.27;3.77;;;20.60;99.90;;;;;;7283015;19;20207;-80
2024/04/11 12:29:18;;;;;;;10.20;3.60;;;20.40;99.90;;;;;;7286034;19;20198;-80
2024/04/11 12:31:44;;;;;;;9.90;3.70;;;20.50;99.90;;;;;;7285943;19;20220;-80
2024/04/11 12:34:10;;;;;;;15.40;3.70;;;20.30;99.90;;;;;;7285186;19;20556;-80
2024/04/11 12:36:56;;;;;;;14.47;3.93;;;20.10;99.90;;;;;;7303672;19;20358;-82
2024/04/11 12:39:32;;;;;;;13.00;4.33;;;19.80;99.90;;;;;;7183226;19;2004794;-81
2024/04/11 12:42:00;;;;;;;9.47;4.67;;;19.80;99.90;;;;;;7283872;19;20272;-81
2024/04/11 12:44:36;;;;;;;13.93;4.40;;;19.60;99.90;;;;;;7282742;19;20284;-81
2024/04/11 12:47:13;;;;;;;9.73;4.07;;;19.60;99.90;;;;;;7285605;19;20188;-82
2024/04/11 12:49:49;;;;;;;11.63;4.23;;;19.50;99.90;;;;;;7266000;19;20366;-80
2024/04/11 12:52:22;;;;;;;12.53;4.33;;;19.30;99.90;;;;;;7283591;19;20188;-81
2024/04/11 12:54:49;;;;;;;11.17;4.60;;;19.40;99.90;;;;;;7284138;19;20188;-81
2024/04/11 12:57:17;;;;;;;9.03;4.50;;;19.40;99.90;;;;;;7284184;19;20240;-81